Time;durP1;ratioP1;P1;durP2;ratioP2;P2;SDS_P1;SDS_P2;PMS_P1;PMS_P2;Temp;Humidity;BMP_temperature;BMP_pressure;BME280_temperature;BME280_humidity;BME280_pressure;Samples;Min_cycle;Max_cycle;Signal;HPM_P1;HPM_P2
2022/09/26 00:00:19;;;;;;;3.30;3.00;;;15.50;99.90;;;;;;6041016;23;20441;-79
2022/09/26 00:02:46;;;;;;;4.67;2.60;;;15.50;99.90;;;;;;6040939;23;20468;-77
2022/09/26 00:05:13;;;;;;;3.30;3.10;;;15.40;99.90;;;;;;6040186;23;20445;-77
2022/09/26 00:07:40;;;;;;;3.50;2.70;;;15.40;99.90;;;;;;6038803;23;20513;-78
2022/09/26 00:10:08;;;;;;;5.43;3.03;;;15.40;99.90;;;;;;6040870;23;20441;-78
2022/09/26 00:12:35;;;;;;;3.10;2.80;;;15.40;99.90;;;;;;6025672;23;20445;-80
2022/09/26 00:15:05;;;;;;;4.37;3.97;;;15.40;99.90;;;;;;6040320;23;20528;-77
2022/09/26 00:17:32;;;;;;;4.90;4.13;;;15.40;99.90;;;;;;6040624;23;20429;-78
2022/09/26 00:19:59;;;;;;;4.90;4.40;;;15.30;99.90;;;;;;6041867;23;20441;-78
2022/09/26 00:22:27;;;;;;;4.67;4.27;;;15.30;99.90;;;;;;6039861;23;20441;-81
2022/09/26 00:24:54;;;;;;;5.30;4.00;;;15.30;99.90;;;;;;6040703;23;20452;-80
2022/09/26 00:27:21;;;;;;;4.40;3.03;;;15.30;99.90;;;;;;6039658;23;20441;-80
2022/09/26 00:29:48;;;;;;;3.00;2.80;;;15.30;99.90;;;;;;6040358;23;20441;-80
2022/09/26 00:32:18;;;;;;;3.47;2.93;;;15.30;99.90;;;;;;6039370;23;20464;-80
2022/09/26 00:34:45;;;;;;;2.83;2.60;;;15.20;99.90;;;;;;6066266;23;20730;-79
2022/09/26 00:37:12;;;;;;;2.30;2.17;;;15.20;99.90;;;;;;6068569;23;20447;-80
2022/09/26 00:39:39;;;;;;;3.03;2.80;;;15.20;99.90;;;;;;6068830;23;20456;-80
2022/09/26 00:42:09;;;;;;;3.53;3.33;;;15.20;99.90;;;;;;6068963;23;20749;-80
2022/09/26 00:44:47;;;;;;;3.17;2.80;;;15.20;99.90;;;;;;6097170;23;20432;-80
2022/09/26 00:47:22;;;;;;;3.07;2.30;;;15.20;99.90;;;;;;6097236;23;20438;-80
2022/09/26 00:49:53;;;;;;;3.70;3.30;;;15.20;99.90;;;;;;6097612;23;20466;-80
2022/09/26 00:52:26;;;;;;;3.97;2.70;;;15.10;99.90;;;;;;6096589;23;20507;-78
2022/09/26 00:54:56;;;;;;;2.97;2.77;;;15.10;99.90;;;;;;6097536;23;20435;-78
2022/09/26 00:57:29;;;;;;;3.10;2.80;;;15.10;99.90;;;;;;6096150;23;20979;-78
2022/09/26 01:00:00;;;;;;;3.37;3.07;;;15.10;99.90;;;;;;6097464;23;20518;-77
2022/09/26 01:02:29;;;;;;;6.23;3.20;;;15.20;99.90;;;;;;6096562;23;20455;-77
2022/09/26 01:04:57;;;;;;;4.57;3.20;;;15.10;99.90;;;;;;6097927;23;20439;-79
2022/09/26 01:07:27;;;;;;;6.97;3.40;;;15.10;99.90;;;;;;6084003;23;20439;-77
2022/09/26 01:09:55;;;;;;;6.80;4.10;;;15.10;99.90;;;;;;6097355;23;20505;-77
2022/09/26 01:12:22;;;;;;;5.13;4.17;;;15.10;99.90;;;;;;6096778;23;20744;-77
2022/09/26 01:29:11;;;;;;;;;;;;;;;;;;;;;
2022/09/26 01:49:51;;;;;;;3.30;2.77;;;14.90;99.90;;;;;;6097229;23;20660;-77
2022/09/26 01:55:45;;;;;;;6.80;3.60;;;14.90;99.90;;;;;;5868329;24;20451;-77
2022/09/26 01:58:16;;;;;;;3.00;2.70;;;14.90;99.90;;;;;;5962633;23;20440;-76
2022/09/26 02:00:47;;;;;;;3.17;2.53;;;14.90;99.90;;;;;;6067791;23;20475;-80
2022/09/26 02:03:17;;;;;;;3.63;3.10;;;14.90;99.90;;;;;;6068696;23;20444;-76
2022/09/26 02:05:51;;;;;;;4.20;3.53;;;14.90;99.90;;;;;;6066997;23;20451;-77
2022/09/26 02:08:23;;;;;;;4.47;3.47;;;14.90;99.90;;;;;;6067613;23;20452;-80
2022/09/26 02:10:58;;;;;;;2.90;2.70;;;14.90;99.90;;;;;;6067988;23;20433;-80
2022/09/26 02:13:30;;;;;;;3.47;3.17;;;14.90;99.90;;;;;;6067737;23;20478;-77
2022/09/26 02:16:02;;;;;;;7.30;3.77;;;14.90;99.90;;;;;;6068140;23;20445;-81
2022/09/26 02:18:33;;;;;;;4.63;3.37;;;14.90;99.90;;;;;;6068216;23;20520;-77
2022/09/26 02:21:02;;;;;;;3.40;3.10;;;14.90;99.90;;;;;;6068140;23;20424;-77
2022/09/26 02:23:29;;;;;;;3.87;3.57;;;14.90;99.90;;;;;;6067945;23;20810;-81
2022/09/26 02:25:58;;;;;;;3.80;3.37;;;14.90;99.90;;;;;;6067618;23;20440;-81
2022/09/26 02:28:27;;;;;;;4.60;4.20;;;14.90;99.90;;;;;;6067132;23;20448;-78
2022/09/26 02:30:54;;;;;;;3.90;3.60;;;14.80;99.90;;;;;;6067752;23;20436;-81
2022/09/26 02:33:22;;;;;;;4.23;3.20;;;14.90;99.90;;;;;;6068580;23;20741;-77
2022/09/26 02:35:55;;;;;;;3.73;3.40;;;14.90;99.90;;;;;;6067777;23;20443;-78
2022/09/26 02:38:23;;;;;;;3.60;3.10;;;14.90;99.90;;;;;;6067998;23;20444;-78
2022/09/26 02:40:56;;;;;;;4.00;3.37;;;14.90;99.90;;;;;;6067780;23;20801;-81
2022/09/26 02:43:50;;;;;;;3.53;3.30;;;14.90;99.90;;;;;;6067007;23;20444;-78
2022/09/26 02:46:48;;;;;;;3.80;3.23;;;14.90;99.90;;;;;;6068648;23;20939;-78
2022/09/26 02:49:35;;;;;;;5.40;3.90;;;14.90;99.90;;;;;;6068010;23;20444;-78
2022/09/26 02:52:18;;;;;;;3.30;3.10;;;14.90;99.90;;;;;;6067475;23;20443;-80
2022/09/26 02:54:56;;;;;;;5.20;3.40;;;14.80;99.90;;;;;;6068106;23;20499;-80
2022/09/26 02:57:34;;;;;;;5.90;3.67;;;14.80;99.90;;;;;;6067620;23;20967;-80
2022/09/26 03:00:08;;;;;;;3.50;3.20;;;14.80;99.90;;;;;;6065992;23;20556;-77
2022/09/26 03:02:39;;;;;;;5.17;3.50;;;14.80;99.90;;;;;;6064955;23;20440;-80
2022/09/26 03:05:10;;;;;;;3.90;3.47;;;14.80;99.90;;;;;;6066347;23;20436;-77
2022/09/26 03:07:44;;;;;;;5.83;3.50;;;14.80;99.90;;;;;;6068230;23;20436;-80
2022/09/26 03:10:13;;;;;;;4.10;3.80;;;14.80;99.90;;;;;;6066964;23;20469;-80
2022/09/26 03:12:41;;;;;;;3.70;3.43;;;14.80;99.90;;;;;;6067953;23;20466;-77
2022/09/26 03:15:10;;;;;;;3.83;3.27;;;14.80;99.90;;;;;;6067018;23;20444;-77
2022/09/26 03:17:41;;;;;;;4.87;4.10;;;14.80;99.90;;;;;;6067774;23;20446;-76
2022/09/26 03:20:12;;;;;;;3.83;3.47;;;14.80;99.90;;;;;;6067406;23;20444;-76
2022/09/26 03:22:39;;;;;;;4.67;3.40;;;14.80;99.90;;;;;;6067787;23;20459;-77
2022/09/26 03:25:09;;;;;;;3.73;3.43;;;14.80;99.90;;;;;;6067336;23;20869;-80
2022/09/26 03:27:42;;;;;;;3.73;3.33;;;14.80;99.90;;;;;;6067834;23;20900;-77
2022/09/26 03:30:23;;;;;;;4.10;2.80;;;14.80;99.90;;;;;;6066415;23;20520;-77
2022/09/26 03:32:50;;;;;;;4.33;3.53;;;14.80;99.90;;;;;;6067092;23;20444;-77
2022/09/26 03:35:18;;;;;;;2.73;2.40;;;14.80;99.90;;;;;;6067243;23;20440;-78
2022/09/26 03:37:48;;;;;;;7.80;3.27;;;14.80;99.90;;;;;;6068159;23;20447;-77
2022/09/26 03:40:15;;;;;;;3.53;3.23;;;14.80;99.90;;;;;;6067527;23;20538;-77
2022/09/26 03:42:54;;;;;;;6.33;5.37;;;14.80;99.90;;;;;;6069096;23;20436;-77
2022/09/26 03:45:22;;;;;;;6.20;3.90;;;14.80;99.90;;;;;;6068848;23;20436;-77
2022/09/26 03:47:55;;;;;;;3.30;3.00;;;14.80;99.90;;;;;;6069857;23;20467;-77
2022/09/26 03:50:22;;;;;;;3.70;2.80;;;14.80;99.90;;;;;;6068835;23;20432;-77
2022/09/26 03:52:49;;;;;;;3.27;2.97;;;14.80;99.90;;;;;;6070078;23;20813;-77
2022/09/26 03:55:16;;;;;;;3.00;2.43;;;14.80;99.90;;;;;;6069321;23;20444;-77
2022/09/26 03:57:43;;;;;;;3.40;3.00;;;14.80;99.90;;;;;;6069943;23;20436;-77
2022/09/26 04:00:14;;;;;;;5.07;3.10;;;14.80;99.90;;;;;;6068382;23;20440;-78
2022/09/26 04:02:42;;;;;;;5.27;3.27;;;14.80;99.90;;;;;;6069727;23;20979;-78
2022/09/26 04:05:10;;;;;;;3.77;3.30;;;14.80;99.90;;;;;;6068997;23;20749;-77
2022/09/26 04:07:36;;;;;;;11.10;3.37;;;14.80;99.90;;;;;;6069464;23;20467;-77
2022/09/26 04:10:04;;;;;;;5.03;3.20;;;14.80;99.90;;;;;;6069390;23;20933;-77
2022/09/26 04:12:31;;;;;;;5.53;3.10;;;14.80;99.90;;;;;;6068979;23;20460;-77
2022/09/26 04:14:58;;;;;;;3.13;2.80;;;14.80;99.90;;;;;;6069293;23;20441;-77
2022/09/26 04:17:25;;;;;;;7.30;4.00;;;14.70;99.90;;;;;;6069095;23;20499;-77
2022/09/26 04:19:53;;;;;;;8.13;4.23;;;14.70;99.90;;;;;;6069553;23;20535;-77
2022/09/26 04:22:20;;;;;;;3.77;3.47;;;14.70;99.90;;;;;;6067115;23;20515;-77
2022/09/26 04:24:48;;;;;;;4.87;4.13;;;14.70;99.90;;;;;;6069540;23;20444;-77
2022/09/26 04:27:15;;;;;;;6.97;4.13;;;14.70;99.90;;;;;;6068120;23;20475;-77
2022/09/26 04:29:43;;;;;;;6.70;4.70;;;14.70;99.90;;;;;;6069354;23;20745;-77
2022/09/26 04:32:09;;;;;;;7.13;4.53;;;14.60;99.90;;;;;;6068621;23;20440;-76
2022/09/26 04:34:38;;;;;;;4.13;3.20;;;14.60;99.90;;;;;;6069446;23;20436;-78
2022/09/26 04:37:07;;;;;;;4.90;3.60;;;14.60;99.90;;;;;;6069269;23;20437;-76
2022/09/26 04:39:34;;;;;;;4.57;3.83;;;14.60;99.90;;;;;;6068796;23;20440;-77
2022/09/26 04:42:01;;;;;;;6.53;3.20;;;14.60;99.90;;;;;;6068953;23;20999;-77
2022/09/26 04:44:29;;;;;;;3.30;3.00;;;14.60;99.90;;;;;;6067788;23;20440;-77
2022/09/26 04:46:56;;;;;;;6.17;3.53;;;14.50;99.90;;;;;;6069120;23;20935;-77
2022/09/26 04:49:23;;;;;;;5.63;3.37;;;14.50;99.90;;;;;;6067981;23;20444;-76
2022/09/26 04:51:50;;;;;;;3.63;3.30;;;14.50;99.90;;;;;;6068877;23;20795;-77
2022/09/26 04:54:19;;;;;;;5.97;3.97;;;14.50;99.90;;;;;;6068314;23;20806;-76
2022/09/26 04:56:46;;;;;;;3.47;3.20;;;14.40;99.90;;;;;;6068791;23;20657;-77
2022/09/26 04:59:13;;;;;;;5.47;3.45;;;14.40;99.90;;;;;;6068192;23;20495;-76
2022/09/26 05:01:40;;;;;;;3.40;3.20;;;14.40;99.90;;;;;;6068734;23;20204;-78
2022/09/26 05:04:08;;;;;;;4.20;3.30;;;14.40;99.90;;;;;;6068616;23;20440;-76
2022/09/26 05:06:35;;;;;;;3.63;3.00;;;14.40;99.90;;;;;;6068382;23;20515;-77
2022/09/26 05:12:25;;;;;;;3.43;2.77;;;14.30;99.90;;;;;;6068684;23;20548;-77
2022/09/26 05:14:55;;;;;;;3.53;3.23;;;14.30;99.90;;;;;;6068903;23;20460;-76
2022/09/26 05:17:23;;;;;;;6.30;3.53;;;14.30;99.90;;;;;;6067952;23;20435;-81
2022/09/26 05:19:50;;;;;;;4.20;3.10;;;14.30;99.90;;;;;;6068921;23;20208;-80
2022/09/26 05:22:23;;;;;;;4.22;2.60;;;14.20;99.90;;;;;;6068159;23;20452;-80
2022/09/26 05:27:36;;;;;;;4.28;3.10;;;14.20;99.90;;;;;;6068042;23;20447;-77
2022/09/26 05:30:03;;;;;;;6.22;4.80;;;14.20;99.90;;;;;;6053914;23;20216;-77
2022/09/26 05:32:30;;;;;;;5.72;5.15;;;14.10;99.90;;;;;;6067297;23;20570;-77
2022/09/26 05:34:57;;;;;;;5.28;4.78;;;14.10;99.90;;;;;;6068657;23;20215;-81
2022/09/26 05:37:24;;;;;;;6.33;5.27;;;14.20;99.90;;;;;;6067307;23;20200;-77
2022/09/26 05:42:37;;;;;;;5.03;3.95;;;14.20;99.90;;;;;;6067661;23;20471;-77
2022/09/26 05:45:04;;;;;;;7.90;5.78;;;14.20;99.90;;;;;;6068252;23;20238;-77
2022/09/26 05:47:36;;;;;;;5.80;5.30;;;14.20;99.90;;;;;;6067346;23;20208;-81
2022/09/26 05:50:03;;;;;;;5.47;4.97;;;14.20;99.90;;;;;;6068681;23;20471;-80
2022/09/26 05:52:30;;;;;;;4.60;3.88;;;14.20;99.90;;;;;;6067568;23;20448;-80
2022/09/26 05:54:58;;;;;;;4.50;4.10;;;14.20;99.90;;;;;;6068211;23;20279;-81
2022/09/26 05:57:24;;;;;;;5.00;4.00;;;14.20;99.90;;;;;;6067580;23;20204;-77
2022/09/26 05:59:53;;;;;;;5.50;3.43;;;14.20;99.90;;;;;;6069434;23;20440;-77
2022/09/26 06:02:20;;;;;;;14.25;9.55;;;14.20;99.90;;;;;;6067397;23;20770;-77
2022/09/26 06:04:48;;;;;;;7.65;6.13;;;14.20;99.90;;;;;;6068469;23;20212;-77
2022/09/26 06:07:15;;;;;;;7.28;5.18;;;14.20;99.90;;;;;;6068523;23;20200;-77
2022/09/26 06:09:43;;;;;;;6.68;4.80;;;14.20;99.90;;;;;;6067872;23;20212;-80
2022/09/26 06:12:10;;;;;;;9.15;5.00;;;14.20;99.90;;;;;;6068186;23;20211;-81
2022/09/26 06:14:37;;;;;;;6.05;5.40;;;14.20;99.90;;;;;;6067622;23;20267;-80
2022/09/26 06:17:05;;;;;;;4.82;4.43;;;14.20;99.90;;;;;;6068470;23;20207;-81
2022/09/26 06:19:32;;;;;;;4.70;4.20;;;14.20;99.90;;;;;;6067450;23;20263;-80
2022/09/26 06:21:59;;;;;;;8.05;5.50;;;14.20;99.90;;;;;;6068255;23;20512;-80
2022/09/26 06:24:26;;;;;;;5.70;4.78;;;14.30;99.90;;;;;;6067297;23;20565;-80
2022/09/26 06:26:53;;;;;;;4.47;4.07;;;14.30;99.90;;;;;;6068910;23;20708;-81
2022/09/26 06:29:31;;;;;;;5.25;4.43;;;14.30;99.90;;;;;;6066773;23;20752;-79
2022/09/26 06:32:01;;;;;;;5.13;4.57;;;14.40;99.90;;;;;;6068199;23;20287;-80
2022/09/26 06:34:29;;;;;;;4.40;4.00;;;14.40;99.90;;;;;;6067322;23;20200;-80
2022/09/26 06:36:56;;;;;;;9.55;5.15;;;14.40;99.90;;;;;;6068488;23;20980;-80
2022/09/26 06:39:29;;;;;;;7.35;5.35;;;14.40;99.90;;;;;;6067876;23;20704;-80
2022/09/26 06:41:56;;;;;;;8.05;4.75;;;14.40;99.90;;;;;;6067135;23;20228;-80
2022/09/26 06:44:23;;;;;;;7.90;5.13;;;14.40;99.90;;;;;;6067650;23;20656;-80
2022/09/26 06:46:50;;;;;;;9.55;6.80;;;14.40;99.90;;;;;;6067031;23;20473;-80
2022/09/26 06:49:17;;;;;;;8.67;6.00;;;14.50;99.90;;;;;;6068119;23;20279;-80
2022/09/26 06:51:49;;;;;;;7.90;5.00;;;14.50;99.90;;;;;;6066971;23;20464;-80
2022/09/26 06:54:16;;;;;;;4.37;4.07;;;14.50;99.90;;;;;;6068037;23;20746;-80
2022/09/26 06:56:43;;;;;;;7.83;4.40;;;14.60;99.90;;;;;;6067707;23;20436;-80
2022/09/26 06:59:11;;;;;;;4.63;4.00;;;14.60;99.90;;;;;;6068075;23;20463;-77
2022/09/26 07:01:41;;;;;;;4.37;3.60;;;14.70;99.90;;;;;;6066429;23;20568;-77
2022/09/26 07:04:08;;;;;;;5.07;3.63;;;14.70;99.90;;;;;;6067994;23;20442;-77
2022/09/26 07:06:35;;;;;;;4.37;3.87;;;14.70;99.90;;;;;;6067091;23;20444;-76
2022/09/26 07:09:04;;;;;;;5.43;3.50;;;14.80;99.90;;;;;;6067901;23;20436;-81
2022/09/26 07:11:31;;;;;;;4.07;3.67;;;14.80;99.90;;;;;;6065134;23;20448;-78
2022/09/26 07:13:59;;;;;;;4.47;3.80;;;14.90;99.90;;;;;;6068768;23;20940;-80
2022/09/26 07:16:27;;;;;;;5.17;4.67;;;14.90;99.90;;;;;;6066915;23;20440;-77
2022/09/26 07:18:54;;;;;;;6.07;4.50;;;15.00;99.90;;;;;;6075838;23;20440;-78
2022/09/26 07:21:21;;;;;;;7.30;4.40;;;15.00;99.90;;;;;;6072460;23;20440;-77
2022/09/26 07:23:48;;;;;;;8.10;5.63;;;15.00;99.90;;;;;;6084054;23;20440;-79
2022/09/26 07:26:17;;;;;;;6.20;5.07;;;15.00;99.90;;;;;;6076641;23;20440;-80
2022/09/26 07:28:47;;;;;;;6.23;5.57;;;15.00;99.90;;;;;;6068879;23;20444;-80
2022/09/26 07:31:14;;;;;;;6.43;5.80;;;15.00;99.90;;;;;;6069052;23;20436;-76
2022/09/26 07:33:42;;;;;;;5.67;5.17;;;15.10;99.90;;;;;;6069198;23;20733;-76
2022/09/26 07:36:09;;;;;;;8.53;6.50;;;15.20;99.90;;;;;;6069443;23;20436;-76
2022/09/26 07:38:36;;;;;;;7.30;6.60;;;15.20;99.90;;;;;;6069222;23;20511;-76
2022/09/26 07:41:03;;;;;;;9.30;6.87;;;15.20;99.90;;;;;;6062502;23;20524;-77
2022/09/26 07:43:32;;;;;;;5.73;5.23;;;15.30;99.90;;;;;;6064161;23;20764;-77
2022/09/26 07:51:28;;;;;;;5.33;3.63;;;15.40;99.90;;;;;;6045413;23;20448;-77
2022/09/26 07:53:55;;;;;;;4.37;3.60;;;15.50;99.90;;;;;;6069566;23;20443;-77
2022/09/26 07:56:22;;;;;;;4.03;3.23;;;15.50;99.90;;;;;;6069645;23;20917;-77
2022/09/26 07:58:54;;;;;;;5.43;3.33;;;15.60;99.90;;;;;;6069184;23;20444;-77
2022/09/26 08:01:21;;;;;;;5.07;3.10;;;15.70;99.90;;;;;;6069572;23;20496;-78
2022/09/26 08:03:48;;;;;;;3.23;2.77;;;15.70;99.90;;;;;;6054261;23;20440;-81
2022/09/26 08:06:19;;;;;;;3.83;3.47;;;15.80;99.90;;;;;;6069686;23;20452;-79
2022/09/26 08:08:47;;;;;;;2.90;2.60;;;15.80;99.90;;;;;;6069208;23;20436;-78
2022/09/26 08:11:15;;;;;;;6.30;3.23;;;15.80;99.90;;;;;;6069020;23;20443;-77
2022/09/26 08:13:43;;;;;;;3.97;2.10;;;15.90;99.90;;;;;;6068841;23;21115;-77
2022/09/26 08:17:11;;;;;;;2.60;2.27;;;15.90;99.90;;;;;;6069739;23;20437;-79
2022/09/26 08:19:40;;;;;;;2.43;2.23;;;15.90;99.90;;;;;;6047663;23;20431;-77
2022/09/26 08:22:07;;;;;;;3.80;2.30;;;15.90;99.90;;;;;;6070958;23;20936;-78
2022/09/26 08:24:34;;;;;;;4.30;3.00;;;15.90;99.90;;;;;;6068808;23;20468;-77
2022/09/26 08:27:01;;;;;;;4.13;2.53;;;16.00;99.90;;;;;;6069122;23;20428;-78
2022/09/26 08:29:31;;;;;;;4.67;2.40;;;15.90;99.90;;;;;;6068475;23;20467;-78
2022/09/26 08:31:59;;;;;;;3.30;2.17;;;16.00;99.90;;;;;;6069479;23;20444;-80
2022/09/26 08:34:34;;;;;;;2.20;1.97;;;16.10;99.90;;;;;;6068311;23;20500;-80
2022/09/26 08:37:02;;;;;;;4.00;2.53;;;16.10;99.90;;;;;;6069492;23;20928;-80
2022/09/26 08:39:29;;;;;;;3.53;1.87;;;16.20;99.90;;;;;;6068794;23;20442;-80
2022/09/26 08:42:08;;;;;;;2.40;2.17;;;16.20;99.90;;;;;;6069132;23;20492;-80
2022/09/26 08:44:55;;;;;;;3.67;2.03;;;16.20;99.90;;;;;;6068012;23;20441;-80
2022/09/26 08:47:38;;;;;;;2.93;2.10;;;16.20;99.90;;;;;;6032815;23;20840;-81
2022/09/26 08:50:19;;;;;;;2.00;1.73;;;16.20;99.90;;;;;;6068056;23;20478;-78
2022/09/26 08:52:52;;;;;;;2.27;1.93;;;16.30;99.90;;;;;;6069133;23;20444;-79
2022/09/26 08:55:22;;;;;;;6.20;2.93;;;16.40;99.90;;;;;;6068043;23;20506;-79
2022/09/26 08:57:53;;;;;;;2.20;2.00;;;16.50;99.90;;;;;;6069242;23;20505;-78
2022/09/26 09:00:23;;;;;;;3.60;1.87;;;16.50;99.90;;;;;;6067901;23;20839;-78
2022/09/26 09:03:00;;;;;;;2.60;1.70;;;16.60;99.90;;;;;;6069028;23;20441;-78
2022/09/26 09:05:31;;;;;;;3.33;1.67;;;16.70;99.90;;;;;;6068362;23;20768;-81
2022/09/26 09:08:06;;;;;;;4.43;2.60;;;16.80;99.90;;;;;;6069116;23;20434;-81
2022/09/26 09:10:45;;;;;;;5.53;2.40;;;16.80;99.90;;;;;;6068433;23;20889;-81
2022/09/26 09:13:27;;;;;;;3.73;2.83;;;16.90;99.90;;;;;;6068100;23;20446;-79
2022/09/26 09:16:12;;;;;;;2.87;1.67;;;17.00;99.90;;;;;;6068518;23;20436;-80
2022/09/26 09:18:52;;;;;;;1.47;1.33;;;17.00;99.90;;;;;;6068193;23;20454;-81
2022/09/26 09:21:31;;;;;;;1.37;1.20;;;17.00;99.90;;;;;;6067859;23;20476;-80
2022/09/26 09:24:12;;;;;;;1.53;1.40;;;17.00;99.90;;;;;;6068956;23;20438;-81
2022/09/26 09:27:04;;;;;;;1.80;1.43;;;17.00;99.90;;;;;;6068291;23;20888;-80
2022/09/26 09:29:55;;;;;;;2.37;1.30;;;17.00;99.90;;;;;;6068335;23;20739;-81
2022/09/26 09:32:30;;;;;;;3.40;2.40;;;17.00;99.90;;;;;;6067807;23;20438;-80
2022/09/26 09:34:57;;;;;;;1.33;1.23;;;17.10;99.90;;;;;;6068884;23;20444;-80
2022/09/26 09:37:29;;;;;;;2.03;1.83;;;17.10;99.90;;;;;;6067321;23;20923;-80
2022/09/26 09:39:57;;;;;;;3.73;1.50;;;17.20;99.90;;;;;;6068520;23;20716;-81
2022/09/26 09:42:56;;;;;;;2.30;1.60;;;17.30;99.90;;;;;;6052176;23;20518;-81
2022/09/26 09:45:28;;;;;;;1.60;1.50;;;17.30;99.90;;;;;;6066678;23;20466;-81
2022/09/26 09:47:57;;;;;;;5.60;2.87;;;17.40;99.90;;;;;;6068705;23;20434;-81
2022/09/26 09:50:35;;;;;;;3.10;1.57;;;17.40;99.90;;;;;;6068538;23;20497;-81
2022/09/26 09:53:11;;;;;;;3.50;2.93;;;17.40;99.90;;;;;;6067368;23;20430;-81
2022/09/26 09:55:50;;;;;;;3.63;1.90;;;17.50;99.90;;;;;;6068003;23;20442;-79
2022/09/26 09:58:53;;;;;;;4.43;1.40;;;17.50;99.90;;;;;;6069020;23;20455;-76
2022/09/26 10:01:27;;;;;;;1.73;1.23;;;17.60;99.90;;;;;;6068313;23;20441;-77
2022/09/26 10:04:03;;;;;;;2.30;1.33;;;17.60;99.90;;;;;;6054374;23;20442;-77
2022/09/26 10:06:31;;;;;;;1.40;1.10;;;17.60;99.90;;;;;;6067243;23;20505;-77
2022/09/26 10:09:04;;;;;;;1.23;1.13;;;17.60;99.70;;;;;;6068982;23;20435;-80
2022/09/26 10:11:40;;;;;;;1.40;1.30;;;17.60;99.60;;;;;;6067680;23;20501;-77
2022/09/26 10:14:14;;;;;;;1.93;1.40;;;17.70;99.70;;;;;;6068800;23;20554;-77
2022/09/26 10:17:14;;;;;;;3.73;2.10;;;17.70;99.80;;;;;;6067228;23;20439;-79
2022/09/26 10:19:43;;;;;;;2.07;1.50;;;17.70;99.80;;;;;;6067206;23;20931;-80
2022/09/26 10:22:16;;;;;;;1.13;1.03;;;17.80;99.80;;;;;;6067929;23;20502;-80
2022/09/26 10:24:50;;;;;;;1.53;1.03;;;17.80;99.70;;;;;;6068346;23;20435;-78
2022/09/26 10:27:25;;;;;;;4.77;2.10;;;17.80;99.80;;;;;;6068537;23;20439;-77
2022/09/26 10:29:57;;;;;;;4.27;3.97;;;17.80;99.60;;;;;;6067875;23;20517;-80
2022/09/26 10:32:24;;;;;;;3.23;2.93;;;17.80;99.70;;;;;;6068562;23;20440;-77
2022/09/26 10:35:06;;;;;;;4.73;2.97;;;17.80;99.70;;;;;;6067741;23;20440;-77
2022/09/26 10:37:37;;;;;;;2.30;1.80;;;17.80;99.70;;;;;;6067755;23;20749;-77
2022/09/26 10:43:21;;;;;;;3.80;1.40;;;17.80;99.50;;;;;;6054128;23;20456;-77
2022/09/26 10:45:49;;;;;;;1.30;1.20;;;17.80;99.50;;;;;;6068653;23;20549;-77
2022/09/26 10:48:20;;;;;;;5.37;2.03;;;17.90;99.60;;;;;;6067751;23;20429;-77
2022/09/26 10:50:50;;;;;;;6.60;1.70;;;17.90;99.40;;;;;;6069482;23;20510;-76
2022/09/26 10:53:21;;;;;;;2.17;1.30;;;17.90;98.90;;;;;;6070145;23;20454;-78
2022/09/26 10:55:56;;;;;;;8.33;1.70;;;18.00;99.10;;;;;;6071349;23;20443;-77
2022/09/26 10:58:31;;;;;;;1.90;1.50;;;18.00;99.10;;;;;;6070901;23;20724;-77
2022/09/26 11:01:00;;;;;;;2.90;1.83;;;18.00;99.10;;;;;;6070825;23;20436;-81
2022/09/26 11:03:38;;;;;;;3.60;2.30;;;17.90;98.80;;;;;;6070307;23;20510;-77
2022/09/26 11:06:19;;;;;;;1.67;1.50;;;17.90;98.90;;;;;;6069860;23;20435;-79
2022/09/26 11:08:51;;;;;;;1.30;1.20;;;18.00;99.10;;;;;;6070352;23;20444;-78
2022/09/26 11:11:20;;;;;;;3.10;2.03;;;18.00;99.20;;;;;;6068680;23;20487;-79
2022/09/26 11:14:02;;;;;;;5.30;4.30;;;17.90;98.80;;;;;;6069084;23;20447;-77
2022/09/26 11:16:37;;;;;;;7.37;2.87;;;17.90;98.70;;;;;;6069964;23;20492;-80
2022/09/26 11:19:14;;;;;;;1.63;1.23;;;17.90;98.40;;;;;;6070250;23;20438;-80
2022/09/26 11:21:51;;;;;;;5.33;4.80;;;17.90;97.40;;;;;;6070056;23;20474;-76
2022/09/26 11:24:26;;;;;;;3.40;3.10;;;17.80;97.40;;;;;;6070126;23;20457;-77
2022/09/26 11:27:05;;;;;;;2.83;2.63;;;17.90;97.60;;;;;;6072377;23;20831;-80
2022/09/26 11:29:43;;;;;;;2.60;2.10;;;17.90;97.70;;;;;;6074039;23;20436;-77
2022/09/26 11:32:16;;;;;;;2.70;1.70;;;18.00;97.60;;;;;;6073545;23;20439;-80
2022/09/26 11:34:43;;;;;;;2.40;1.47;;;18.00;97.30;;;;;;6073413;23;20439;-78
2022/09/26 11:37:29;;;;;;;4.47;1.37;;;18.00;97.10;;;;;;6073281;23;20444;-80
2022/09/26 11:40:17;;;;;;;3.13;1.13;;;18.00;97.10;;;;;;6071578;23;20744;-80
2022/09/26 11:43:03;;;;;;;2.20;1.20;;;18.00;97.10;;;;;;6069631;23;20438;-80
2022/09/26 11:45:44;;;;;;;1.70;1.60;;;18.10;97.40;;;;;;6069984;23;20497;-80
2022/09/26 11:48:33;;;;;;;2.63;1.67;;;18.10;97.60;;;;;;6069707;23;20755;-80
2022/09/26 11:51:11;;;;;;;2.47;1.97;;;18.20;97.80;;;;;;6068536;23;20809;-77
2022/09/26 11:54:03;;;;;;;5.17;1.53;;;18.20;97.90;;;;;;6070583;23;20459;-79
2022/09/26 11:56:44;;;;;;;2.63;1.67;;;18.20;97.90;;;;;;6069797;23;20451;-80
2022/09/26 11:59:37;;;;;;;2.50;1.27;;;18.30;97.90;;;;;;6069666;23;20793;-80
2022/09/26 12:02:30;;;;;;;4.00;1.40;;;18.30;97.50;;;;;;6070692;23;20439;-81
2022/09/26 12:05:23;;;;;;;3.37;1.77;;;18.30;97.00;;;;;;6070311;23;20506;-81
2022/09/26 12:08:03;;;;;;;4.03;2.63;;;18.30;96.80;;;;;;6069741;23;20436;-80
2022/09/26 12:10:38;;;;;;;2.73;1.90;;;18.30;96.50;;;;;;6070234;23;20513;-81
2022/09/26 12:13:33;;;;;;;2.40;1.40;;;18.30;96.70;;;;;;6050155;23;20443;-82
2022/09/26 12:16:10;;;;;;;4.20;2.57;;;18.40;96.80;;;;;;6055863;23;20720;-80
2022/09/26 12:18:46;;;;;;;3.57;1.97;;;18.30;96.90;;;;;;6070248;23;20443;-77
2022/09/26 12:21:22;;;;;;;2.47;1.57;;;18.30;96.10;;;;;;6072057;23;20483;-77
2022/09/26 12:23:53;;;;;;;8.30;5.97;;;18.30;96.20;;;;;;6069563;23;20448;-77
2022/09/26 12:26:30;;;;;;;4.70;2.60;;;18.30;96.20;;;;;;6070103;23;20915;-80
2022/09/26 12:29:31;;;;;;;2.90;2.00;;;18.30;96.20;;;;;;6070643;23;20428;-80
2022/09/26 12:32:22;;;;;;;2.17;1.50;;;18.30;96.30;;;;;;6070468;23;20491;-80
2022/09/26 12:35:05;;;;;;;4.07;3.23;;;18.30;96.50;;;;;;6068077;23;20913;-80
2022/09/26 12:38:12;;;;;;;5.23;2.30;;;18.30;96.60;;;;;;6073070;23;20503;-80
2022/09/26 12:40:49;;;;;;;2.00;1.60;;;18.30;96.70;;;;;;6071209;23;20432;-80
2022/09/26 12:43:49;;;;;;;2.80;1.63;;;18.40;96.60;;;;;;6069623;23;20452;-80
2022/09/26 12:46:33;;;;;;;4.37;2.50;;;18.40;96.60;;;;;;6071729;23;20435;-77
2022/09/26 12:49:26;;;;;;;5.13;2.00;;;18.40;96.40;;;;;;6070413;23;20518;-77
2022/09/26 12:51:59;;;;;;;6.13;2.00;;;18.30;96.10;;;;;;6073246;23;20440;-80
2022/09/26 12:55:02;;;;;;;4.50;1.47;;;18.30;96.10;;;;;;6071879;23;20440;-80
2022/09/26 12:57:38;;;;;;;3.53;1.50;;;18.30;96.10;;;;;;6071419;23;20443;-80
2022/09/26 13:00:19;;;;;;;2.63;1.40;;;18.30;96.00;;;;;;6057319;23;20439;-80
2022/09/26 13:03:18;;;;;;;1.80;1.70;;;18.30;96.00;;;;;;6071058;23;20462;-78
2022/09/26 13:06:10;;;;;;;10.33;5.23;;;18.30;95.70;;;;;;6069852;23;20451;-79
2022/09/26 13:08:52;;;;;;;6.80;6.10;;;18.20;95.00;;;;;;6060461;23;20536;-80
2022/09/26 13:11:29;;;;;;;6.73;5.07;;;18.20;95.10;;;;;;6078360;23;20726;-80
2022/09/26 13:14:35;;;;;;;8.97;7.00;;;18.10;95.00;;;;;;6072693;23;20430;-77
2022/09/26 13:17:12;;;;;;;6.23;2.87;;;18.10;95.00;;;;;;6075070;23;20516;-79
2022/09/26 13:19:47;;;;;;;6.17;2.60;;;18.10;95.30;;;;;;6074012;23;20444;-80
2022/09/26 13:22:26;;;;;;;8.30;2.20;;;18.10;95.30;;;;;;6071709;23;20511;-76
2022/09/26 13:25:02;;;;;;;2.33;1.83;;;18.20;95.40;;;;;;6075724;23;20455;-77
2022/09/26 13:27:35;;;;;;;1.73;1.60;;;18.10;95.70;;;;;;6061643;23;20519;-77
2022/09/26 13:30:06;;;;;;;1.50;1.40;;;18.20;95.30;;;;;;6078893;23;20443;-77
2022/09/26 13:32:43;;;;;;;2.97;1.50;;;18.10;95.00;;;;;;6077097;23;20477;-80
2022/09/26 13:35:19;;;;;;;2.03;1.50;;;18.10;94.90;;;;;;6078751;23;20440;-79
2022/09/26 13:37:53;;;;;;;1.70;1.60;;;18.20;95.20;;;;;;6079451;23;20503;-80
2022/09/26 13:40:36;;;;;;;2.27;1.30;;;18.20;95.10;;;;;;6080739;23;20440;-80
2022/09/26 13:43:21;;;;;;;3.67;1.43;;;18.30;95.10;;;;;;6083789;23;20473;-80
2022/09/26 13:46:02;;;;;;;3.33;1.70;;;18.30;95.20;;;;;;6070804;23;20492;-78
2022/09/26 13:48:39;;;;;;;2.83;1.90;;;18.40;95.50;;;;;;6078025;23;20523;-80
2022/09/26 13:51:18;;;;;;;3.00;1.40;;;18.40;95.60;;;;;;6078056;23;20440;-80
2022/09/26 13:53:54;;;;;;;2.70;1.47;;;18.40;95.00;;;;;;6076141;23;20436;-82
2022/09/26 13:56:46;;;;;;;1.93;1.83;;;18.50;95.20;;;;;;6078254;23;20924;-80
2022/09/26 13:59:34;;;;;;;4.57;2.30;;;18.50;95.30;;;;;;6072959;23;20441;-80
2022/09/26 14:02:23;;;;;;;4.03;3.73;;;18.50;95.30;;;;;;6075929;23;20531;-78
2022/09/26 14:04:53;;;;;;;3.60;2.43;;;18.50;95.40;;;;;;6078868;23;20435;-80
2022/09/26 14:10:20;;;;;;;4.27;3.87;;;18.50;95.40;;;;;;6074111;23;20749;-80
2022/09/26 14:13:20;;;;;;;6.57;4.80;;;18.50;95.50;;;;;;6083576;23;20748;-80
2022/09/26 14:16:00;;;;;;;8.43;5.70;;;18.50;95.30;;;;;;6079078;23;20444;-77